Time;durP1;ratioP1;P1;durP2;ratioP2;P2;SDS_P1;SDS_P2;PMS_P1;PMS_P2;Temp;Humidity;BMP_temperature;BMP_pressure;BME280_temperature;BME280_humidity;BME280_pressure;Samples;Min_cycle;Max_cycle;Signal;HPM_P1;HPM_P2
2023/07/23 00:04:00;;;;;;;1.63;1.25;;;;;;;;;;10289225;28;20046;-93
2023/07/23 00:09:04;;;;;;;3.38;1.10;;;;;;;;;;10279684;28;20042;-93
2023/07/23 00:14:11;;;;;;;2.97;1.52;;;;;;;;;;10321832;28;20058;-94
2023/07/23 00:19:19;;;;;;;2.45;1.25;;;;;;;;;;10284899;28;20587;-93
2023/07/23 00:24:25;;;;;;;1.10;1.00;;;;;;;;;;10273730;28;20047;-94
2023/07/23 00:29:38;;;;;;;1.15;0.98;;;;;;;;;;10306199;28;20042;-92
2023/07/23 00:34:42;;;;;;;1.63;1.13;;;;;;;;;;10270540;28;20149;-93
2023/07/23 00:39:46;;;;;;;1.92;1.00;;;;;;;;;;10287737;28;20383;-94
2023/07/23 00:44:53;;;;;;;1.70;1.30;;;;;;;;;;10298534;28;20505;-94
2023/07/23 00:49:59;;;;;;;2.58;1.20;;;;;;;;;;10270045;28;20130;-94
2023/07/23 00:55:04;;;;;;;1.30;1.08;;;;;;;;;;10298691;28;20115;-95
2023/07/23 01:00:12;;;;;;;1.27;1.00;;;;;;;;;;10281566;28;20055;-96
2023/07/23 01:05:17;;;;;;;1.25;1.05;;;;;;;;;;10227974;29;20058;-93
2023/07/23 01:10:23;;;;;;;2.30;1.02;;;;;;;;;;10230498;29;20047;-94
2023/07/23 01:15:32;;;;;;;2.92;1.08;;;;;;;;;;10221708;28;20134;-95
2023/07/23 01:20:43;;;;;;;1.65;1.10;;;;;;;;;;10231702;28;20047;-93
2023/07/23 01:26:04;;;;;;;1.05;0.95;;;;;;;;;;10231140;28;20047;-93
2023/07/23 01:31:15;;;;;;;1.50;1.10;;;;;;;;;;10230331;28;20128;-93
2023/07/23 01:36:19;;;;;;;2.40;1.40;;;;;;;;;;10229489;28;20066;-94
2023/07/23 01:41:26;;;;;;;1.17;1.00;;;;;;;;;;10244514;28;20043;-94
2023/07/23 01:46:30;;;;;;;1.55;1.15;;;;;;;;;;10228251;28;20114;-93
2023/07/23 01:52:05;;;;;;;1.55;1.40;;;;;;;;;;10228731;28;20070;-94
2023/07/23 01:57:14;;;;;;;1.45;1.05;;;;;;;;;;10229239;29;20172;-93
2023/07/23 02:02:18;;;;;;;1.13;1.02;;;;;;;;;;10227043;28;20043;-95
2023/07/23 02:07:23;;;;;;;3.85;0.98;;;;;;;;;;10234864;28;20050;-94
2023/07/23 02:12:29;;;;;;;1.23;1.10;;;;;;;;;;10235622;28;20039;-94
2023/07/23 02:17:33;;;;;;;0.95;0.88;;;;;;;;;;10265192;28;20039;-92
2023/07/23 02:22:37;;;;;;;1.38;1.02;;;;;;;;;;10289505;28;20292;-92
2023/07/23 02:27:42;;;;;;;1.92;0.90;;;;;;;;;;10267085;28;20050;-93
2023/07/23 02:32:46;;;;;;;1.50;0.93;;;;;;;;;;10264215;28;20053;-92
2023/07/23 02:37:50;;;;;;;1.80;1.42;;;;;;;;;;10278645;28;20047;-92
2023/07/23 02:42:56;;;;;;;1.55;1.15;;;;;;;;;;10246730;28;20127;-93
2023/07/23 02:48:00;;;;;;;3.92;2.13;;;;;;;;;;10279959;28;20043;-93
2023/07/23 02:53:07;;;;;;;1.23;1.13;;;;;;;;;;10258146;28;20047;-93
2023/07/23 02:58:12;;;;;;;1.98;1.20;;;;;;;;;;10274333;28;20150;-92
2023/07/23 03:03:15;;;;;;;1.40;1.30;;;;;;;;;;10270489;28;20474;-92
2023/07/23 03:08:20;;;;;;;2.72;1.15;;;;;;;;;;10275777;28;20131;-94
2023/07/23 03:13:25;;;;;;;1.45;1.10;;;;;;;;;;10271828;28;20035;-93
2023/07/23 03:18:32;;;;;;;1.30;1.20;;;;;;;;;;10263685;28;20047;-92
2023/07/23 03:23:37;;;;;;;1.50;1.20;;;;;;;;;;10262778;28;20043;-92
2023/07/23 03:28:42;;;;;;;2.55;1.27;;;;;;;;;;10271647;28;20047;-93
2023/07/23 03:33:46;;;;;;;1.57;1.10;;;;;;;;;;10263554;28;20125;-93
2023/07/23 03:38:52;;;;;;;1.90;1.27;;;;;;;;;;10273140;28;20298;-93
2023/07/23 03:44:00;;;;;;;1.77;1.38;;;;;;;;;;10295898;28;20046;-93
2023/07/23 03:49:07;;;;;;;1.67;1.30;;;;;;;;;;10256124;28;20134;-93
2023/07/23 03:54:14;;;;;;;1.25;1.15;;;;;;;;;;10264612;28;20054;-93
2023/07/23 03:59:31;;;;;;;2.03;1.05;;;;;;;;;;10310254;28;20043;-93
2023/07/23 04:04:40;;;;;;;1.75;1.30;;;;;;;;;;10242065;28;20054;-94
2023/07/23 04:09:48;;;;;;;1.75;1.17;;;;;;;;;;10242960;28;20411;-93
2023/07/23 04:14:54;;;;;;;1.95;1.20;;;;;;;;;;10253228;28;20047;-94
2023/07/23 04:20:01;;;;;;;1.67;1.00;;;;;;;;;;10298507;28;20046;-94
2023/07/23 04:25:11;;;;;;;1.30;1.20;;;;;;;;;;10277038;28;20046;-95
2023/07/23 04:30:21;;;;;;;1.38;1.20;;;;;;;;;;10230012;29;20057;-94
2023/07/23 04:35:29;;;;;;;2.17;1.40;;;;;;;;;;10228675;29;20070;-94
2023/07/23 04:40:35;;;;;;;1.92;1.35;;;;;;;;;;10254526;28;20109;-94
2023/07/23 04:45:43;;;;;;;3.20;1.30;;;;;;;;;;10308739;28;20498;-93
2023/07/23 04:50:55;;;;;;;2.13;1.30;;;;;;;;;;10313916;28;20608;-92
2023/07/23 04:56:00;;;;;;;2.03;1.20;;;;;;;;;;10272487;28;20049;-93
2023/07/23 05:01:11;;;;;;;2.90;1.20;;;;;;;;;;10285560;28;20127;-94
2023/07/23 05:06:25;;;;;;;1.40;1.30;;;;;;;;;;10283740;28;20137;-92
2023/07/23 05:11:29;;;;;;;1.58;1.30;;;;;;;;;;10256926;28;20062;-93
2023/07/23 05:16:35;;;;;;;1.20;1.10;;;;;;;;;;10264276;28;20051;-93
2023/07/23 05:21:49;;;;;;;1.88;1.27;;;;;;;;;;10236353;28;20094;-94
2023/07/23 05:26:56;;;;;;;2.20;1.27;;;;;;;;;;10219809;28;20047;-94
2023/07/23 05:32:07;;;;;;;2.08;1.48;;;;;;;;;;10259257;28;20045;-94
2023/07/23 05:37:13;;;;;;;2.97;1.55;;;;;;;;;;10267158;28;20050;-93
2023/07/23 05:42:17;;;;;;;2.75;1.30;;;;;;;;;;10291339;28;20084;-93
2023/07/23 05:47:25;;;;;;;1.25;1.15;;;;;;;;;;10250438;28;20743;-93
2023/07/23 05:52:30;;;;;;;1.30;1.10;;;;;;;;;;10283570;28;20042;-95
2023/07/23 05:57:36;;;;;;;1.07;0.97;;;;;;;;;;10266602;28;20051;-94
2023/07/23 06:02:43;;;;;;;1.83;1.23;;;;;;;;;;10266951;28;20051;-94
2023/07/23 06:07:47;;;;;;;1.50;1.25;;;;;;;;;;10267442;28;20070;-94
2023/07/23 06:12:53;;;;;;;1.27;1.08;;;;;;;;;;10282812;28;20125;-94
2023/07/23 06:18:01;;;;;;;1.52;1.30;;;;;;;;;;10281190;28;20564;-93
2023/07/23 06:23:09;;;;;;;3.10;1.10;;;;;;;;;;10283547;28;20129;-95
2023/07/23 06:28:16;;;;;;;1.25;0.90;;;;;;;;;;10279111;28;20043;-93
2023/07/23 06:33:34;;;;;;;1.50;1.13;;;;;;;;;;10281674;23;20059;-86
2023/07/23 06:38:43;;;;;;;3.40;1.38;;;;;;;;;;10227493;28;20047;-87
2023/07/23 06:43:49;;;;;;;4.38;1.50;;;;;;;;;;10240662;28;20130;-88
2023/07/23 06:48:54;;;;;;;4.03;1.48;;;;;;;;;;10222895;28;20063;-85
2023/07/23 06:54:00;;;;;;;3.55;1.40;;;;;;;;;;10261158;28;20130;-86
2023/07/23 06:59:04;;;;;;;1.23;0.90;;;;;;;;;;10244090;28;20090;-86
2023/07/23 07:04:16;;;;;;;1.38;0.98;;;;;;;;;;10253281;28;20094;-85
2023/07/23 07:09:21;;;;;;;2.55;1.45;;;;;;;;;;10246629;28;20492;-85
2023/07/23 07:14:25;;;;;;;1.90;1.70;;;;;;;;;;10235344;28;20129;-87
2023/07/23 07:19:36;;;;;;;;;;;;;;;;;;10249999;28;20090;-86
2023/07/23 07:24:43;;;;;;;1.50;1.20;;;;;;;;;;10257231;28;20345;-87
2023/07/23 07:29:47;;;;;;;1.95;1.30;;;;;;;;;;10226565;29;20142;-88
2023/07/23 07:34:52;;;;;;;1.33;1.23;;;;;;;;;;10228637;28;20095;-87
2023/07/23 07:39:56;;;;;;;2.27;1.13;;;;;;;;;;10245170;28;20070;-87
2023/07/23 07:45:05;;;;;;;1.55;1.08;;;;;;;;;;10244913;28;20063;-86
2023/07/23 07:50:26;;;;;;;1.73;1.38;;;;;;;;;;10206574;29;20052;-87
2023/07/23 07:55:29;;;;;;;2.53;1.58;;;;;;;;;;10230587;28;20544;-87
2023/07/23 08:00:38;;;;;;;1.65;1.33;;;;;;;;;;10224822;28;20404;-85
2023/07/23 08:05:49;;;;;;;2.53;1.63;;;;;;;;;;10232489;28;20047;-86
2023/07/23 08:11:01;;;;;;;2.95;1.75;;;;;;;;;;10219183;28;20043;-85
2023/07/23 08:16:12;;;;;;;2.00;1.25;;;;;;;;;;10243274;28;20047;-85
2023/07/23 08:21:18;;;;;;;2.80;1.33;;;;;;;;;;10244047;29;20094;-85
2023/07/23 08:26:27;;;;;;;2.10;1.50;;;;;;;;;;10225679;28;20115;-88
2023/07/23 08:31:36;;;;;;;1.52;1.30;;;;;;;;;;10250587;28;20598;-86
2023/07/23 08:36:47;;;;;;;3.05;1.27;;;;;;;;;;10243152;29;20055;-87
2023/07/23 08:42:16;;;;;;;1.30;1.10;;;;;;;;;;10225241;28;20109;-86
2023/07/23 08:47:27;;;;;;;1.40;1.20;;;;;;;;;;10242110;28;20106;-86
2023/07/23 08:52:35;;;;;;;1.70;1.05;;;;;;;;;;10236915;28;20779;-86
2023/07/23 08:57:41;;;;;;;2.15;1.20;;;;;;;;;;10252968;28;20039;-86
2023/07/23 09:02:45;;;;;;;1.50;0.85;;;;;;;;;;10224361;28;20053;-85
2023/07/23 09:07:55;;;;;;;1.20;1.10;;;;;;;;;;10244146;28;20067;-86
2023/07/23 09:13:09;;;;;;;2.17;1.20;;;;;;;;;;10226021;28;20424;-87
2023/07/23 09:18:15;;;;;;;1.98;1.00;;;;;;;;;;10217486;29;20389;-86
2023/07/23 09:23:25;;;;;;;;;;;;;;;;;;10247968;28;20058;-88
2023/07/23 09:28:43;;;;;;;2.95;1.25;;;;;;;;;;10247215;28;19922;-87
2023/07/23 09:33:55;;;;;;;2.63;1.10;;;;;;;;;;10241893;28;20086;-88
2023/07/23 09:39:09;;;;;;;2.67;1.20;;;;;;;;;;10247034;28;20098;-87
2023/07/23 09:44:14;;;;;;;1.98;1.20;;;;;;;;;;10228510;28;20098;-87
2023/07/23 09:49:28;;;;;;;3.28;1.42;;;;;;;;;;10224306;28;20054;-86
2023/07/23 09:54:42;;;;;;;1.10;0.90;;;;;;;;;;10225689;28;20047;-87
2023/07/23 09:59:54;;;;;;;3.15;1.17;;;;;;;;;;10257813;28;20559;-88
2023/07/23 10:05:06;;;;;;;0.80;0.77;;;;;;;;;;10220876;28;20045;-87
2023/07/23 10:10:14;;;;;;;0.93;0.80;;;;;;;;;;10238329;28;20054;-86
2023/07/23 10:15:17;;;;;;;1.65;0.98;;;;;;;;;;10233114;28;20146;-87
2023/07/23 10:20:22;;;;;;;1.10;1.00;;;;;;;;;;10258131;28;20482;-86
2023/07/23 10:25:31;;;;;;;;;;;;;;;;;;10236278;28;20110;-88
2023/07/23 10:30:44;;;;;;;1.10;1.00;;;;;;;;;;10234166;28;20395;-87
2023/07/23 10:36:05;;;;;;;2.67;0.93;;;;;;;;;;10258543;28;20051;-88
2023/07/23 10:41:12;;;;;;;1.73;1.00;;;;;;;;;;10225180;28;20653;-87
2023/07/23 10:46:18;;;;;;;1.60;1.00;;;;;;;;;;10239821;28;20390;-86
2023/07/23 10:51:27;;;;;;;1.90;1.30;;;;;;;;;;10260843;28;20420;-86
2023/07/23 10:56:39;;;;;;;1.90;1.13;;;;;;;;;;10265740;28;20102;-87
2023/07/23 11:01:43;;;;;;;1.40;1.00;;;;;;;;;;10245613;28;20082;-87
2023/07/23 11:06:57;;;;;;;1.70;1.10;;;;;;;;;;10234207;28;20520;-88
2023/07/23 11:12:06;;;;;;;1.45;1.15;;;;;;;;;;10263094;28;20078;-87
2023/07/23 11:17:13;;;;;;;1.58;1.20;;;;;;;;;;10217608;29;20071;-89
2023/07/23 11:22:19;;;;;;;2.03;1.50;;;;;;;;;;10235836;28;20528;-89
2023/07/23 11:27:24;;;;;;;2.60;1.60;;;;;;;;;;10292429;28;20055;-88
2023/07/23 11:32:28;;;;;;;1.63;1.33;;;;;;;;;;10274848;28;20100;-89
2023/07/23 11:37:32;;;;;;;1.45;1.13;;;;;;;;;;10288825;28;20063;-87
2023/07/23 11:42:38;;;;;;;2.17;1.40;;;;;;;;;;10274048;28;20078;-88
2023/07/23 11:47:51;;;;;;;1.67;1.20;;;;;;;;;;10287624;28;20114;-87
2023/07/23 11:53:03;;;;;;;3.40;1.80;;;;;;;;;;10282434;28;20473;-85
2023/07/23 11:58:22;;;;;;;2.42;1.52;;;;;;;;;;10285949;28;20467;-86
2023/07/23 12:03:26;;;;;;;2.75;1.52;;;;;;;;;;10268130;28;20106;-88
2023/07/23 12:08:30;;;;;;;2.65;1.27;;;;;;;;;;10287427;28;20055;-88
2023/07/23 12:13:35;;;;;;;2.08;1.40;;;;;;;;;;10268450;28;20035;-88
2023/07/23 12:18:50;;;;;;;3.13;1.30;;;;;;;;;;10279222;28;20528;-89
2023/07/23 12:23:54;;;;;;;;;;;;;;;;;;10282554;28;20062;-87
2023/07/23 12:28:59;;;;;;;3.00;1.10;;;;;;;;;;10275558;28;19921;-88
2023/07/23 12:34:02;;;;;;;2.90;1.40;;;;;;;;;;10276587;28;20054;-87
2023/07/23 12:39:07;;;;;;;2.85;1.20;;;;;;;;;;10265411;28;20038;-89
2023/07/23 12:44:14;;;;;;;1.75;1.23;;;;;;;;;;10250945;28;20053;-88
2023/07/23 12:49:17;;;;;;;3.53;1.50;;;;;;;;;;10277285;28;20101;-89
2023/07/23 12:54:20;;;;;;;3.72;1.27;;;;;;;;;;10273460;28;20069;-88
2023/07/23 12:59:25;;;;;;;1.85;0.95;;;;;;;;;;10267168;28;20095;-87
2023/07/23 13:04:29;;;;;;;2.57;1.10;;;;;;;;;;10263398;28;20153;-87
2023/07/23 13:09:35;;;;;;;2.92;1.50;;;;;;;;;;10266191;28;20129;-87
2023/07/23 13:14:51;;;;;;;1.52;1.10;;;;;;;;;;10280553;28;20042;-88
2023/07/23 13:20:00;;;;;;;1.40;0.90;;;;;;;;;;10294439;28;20072;-87
2023/07/23 13:25:04;;;;;;;2.03;1.05;;;;;;;;;;10268297;28;20053;-87
2023/07/23 13:30:09;;;;;;;1.63;0.85;;;;;;;;;;10264130;28;20039;-88
2023/07/23 13:35:13;;;;;;;1.40;0.88;;;;;;;;;;10268382;28;20559;-88
2023/07/23 13:40:19;;;;;;;1.08;0.88;;;;;;;;;;10246740;28;20476;-87
2023/07/23 13:45:32;;;;;;;1.40;0.90;;;;;;;;;;10284000;28;20081;-88
2023/07/23 13:50:51;;;;;;;1.65;0.90;;;;;;;;;;10284475;28;20257;-89
2023/07/23 13:55:54;;;;;;;2.45;0.50;;;;;;;;;;10292341;28;20097;-87
2023/07/23 14:01:04;;;;;;;0.60;0.60;;;;;;;;;;10261902;28;20101;-87
2023/07/23 14:06:09;;;;;;;0.60;0.52;;;;;;;;;;10283011;28;20081;-89
2023/07/23 14:11:18;;;;;;;0.82;0.60;;;;;;;;;;10301176;28;20109;-87
2023/07/23 14:16:26;;;;;;;1.92;0.90;;;;;;;;;;10283234;28;20129;-87
2023/07/23 14:21:33;;;;;;;1.25;0.82;;;;;;;;;;10277670;28;20049;-89
2023/07/23 14:26:43;;;;;;;1.15;0.80;;;;;;;;;;10288231;28;20119;-87
2023/07/23 14:31:51;;;;;;;1.25;0.80;;;;;;;;;;10273867;28;20213;-87
2023/07/23 14:36:56;;;;;;;0.85;0.80;;;;;;;;;;10300294;28;20031;-88
2023/07/23 14:41:59;;;;;;;1.35;0.90;;;;;;;;;;10280863;28;20505;-88
2023/07/23 14:47:07;;;;;;;1.25;0.90;;;;;;;;;;10257847;28;20097;-87
2023/07/23 14:52:16;;;;;;;3.10;0.90;;;;;;;;;;10272731;28;20369;-87
2023/07/23 14:57:20;;;;;;;1.25;0.90;;;;;;;;;;10280092;28;20034;-88
2023/07/23 15:02:24;;;;;;;1.42;1.00;;;;;;;;;;10272244;28;20034;-88
2023/07/23 15:07:30;;;;;;;3.95;1.10;;;;;;;;;;10292173;28;20119;-87
2023/07/23 15:12:37;;;;;;;1.30;0.93;;;;;;;;;;10258756;28;20578;-87
2023/07/23 15:17:47;;;;;;;1.88;1.33;;;;;;;;;;10272246;28;20043;-87
2023/07/23 15:22:54;;;;;;;0.90;0.70;;;;;;;;;;10244352;28;20054;-88
2023/07/23 15:28:03;;;;;;;1.73;0.68;;;;;;;;;;10277381;28;20130;-87
2023/07/23 15:33:17;;;;;;;2.40;0.88;;;;;;;;;;10259249;28;20074;-88
2023/07/23 15:38:30;;;;;;;0.90;0.80;;;;;;;;;;10249135;28;20047;-88
2023/07/23 15:43:38;;;;;;;1.00;0.88;;;;;;;;;;10265280;28;20066;-88
2023/07/23 15:48:47;;;;;;;2.70;1.05;;;;;;;;;;10262356;28;20078;-87
2023/07/23 15:53:54;;;;;;;1.67;0.80;;;;;;;;;;10263244;28;20137;-88
2023/07/23 15:59:01;;;;;;;1.50;1.20;;;;;;;;;;10266508;28;20126;-87
2023/07/23 16:04:09;;;;;;;1.05;0.85;;;;;;;;;;10262873;28;20134;-87
2023/07/23 16:09:19;;;;;;;1.80;1.15;;;;;;;;;;10272395;28;20055;-86
2023/07/23 16:14:25;;;;;;;2.00;1.13;;;;;;;;;;10295702;28;20130;-87
2023/07/23 16:19:30;;;;;;;2.42;0.90;;;;;;;;;;10282433;28;20077;-86
2023/07/23 16:24:36;;;;;;;1.45;0.80;;;;;;;;;;10274652;28;20125;-88
2023/07/23 16:29:44;;;;;;;1.67;0.95;;;;;;;;;;10255497;28;20042;-87
2023/07/23 16:35:01;;;;;;;1.60;0.88;;;;;;;;;;10286436;28;20046;-87
2023/07/23 16:40:26;;;;;;;1.23;0.90;;;;;;;;;;10274825;28;20138;-86
2023/07/23 16:45:34;;;;;;;0.80;0.65;;;;;;;;;;10273808;28;20496;-86
2023/07/23 16:50:46;;;;;;;1.75;1.20;;;;;;;;;;10284322;28;20078;-86
2023/07/23 16:55:49;;;;;;;1.50;1.10;;;;;;;;;;10298241;28;20516;-87
2023/07/23 17:00:57;;;;;;;2.20;0.93;;;;;;;;;;10268745;28;20049;-88
2023/07/23 17:06:02;;;;;;;0.90;0.80;;;;;;;;;;10281273;28;20504;-88
2023/07/23 17:11:16;;;;;;;2.17;1.08;;;;;;;;;;10270469;28;20251;-87
2023/07/23 17:16:28;;;;;;;1.27;1.00;;;;;;;;;;10285409;28;20059;-88
2023/07/23 17:21:40;;;;;;;1.23;1.05;;;;;;;;;;10271948;28;20063;-87
2023/07/23 17:26:45;;;;;;;0.88;0.77;;;;;;;;;;10286089;28;20512;-86
2023/07/23 17:31:58;;;;;;;1.02;0.80;;;;;;;;;;10261191;28;20055;-86
2023/07/23 17:37:10;;;;;;;0.90;0.60;;;;;;;;;;10287776;28;20074;-86
2023/07/23 17:42:25;;;;;;;1.05;0.90;;;;;;;;;;10303723;28;20558;-87
2023/07/23 17:47:31;;;;;;;1.20;0.80;;;;;;;;;;10283644;28;20073;-88
2023/07/23 17:52:36;;;;;;;1.10;0.90;;;;;;;;;;10270299;28;20113;-86
2023/07/23 17:57:39;;;;;;;1.70;1.00;;;;;;;;;;10266688;28;20057;-86
2023/07/23 18:02:43;;;;;;;1.02;0.85;;;;;;;;;;10256998;28;20046;-87
2023/07/23 18:07:48;;;;;;;1.27;0.80;;;;;;;;;;10264126;28;20051;-87
2023/07/23 18:12:53;;;;;;;1.70;1.10;;;;;;;;;;10292463;28;20039;-87
2023/07/23 18:18:07;;;;;;;1.00;0.80;;;;;;;;;;10282986;28;20105;-87
2023/07/23 18:23:29;;;;;;;1.38;0.85;;;;;;;;;;10265664;28;20055;-87
2023/07/23 18:28:41;;;;;;;0.80;0.70;;;;;;;;;;10266406;28;20042;-87
2023/07/23 18:33:52;;;;;;;0.80;0.80;;;;;;;;;;10303942;28;20494;-88
2023/07/23 18:39:03;;;;;;;1.70;0.90;;;;;;;;;;10300804;28;20520;-87
2023/07/23 18:44:09;;;;;;;1.33;0.85;;;;;;;;;;10292867;28;20047;-87
2023/07/23 18:49:12;;;;;;;;;;;;;;;;;;10298434;28;20503;-88
2023/07/23 18:54:25;;;;;;;1.73;0.80;;;;;;;;;;10253016;28;19973;-87
2023/07/23 18:59:32;;;;;;;1.38;0.68;;;;;;;;;;10236128;28;20058;-89
2023/07/23 19:04:43;;;;;;;0.88;0.50;;;;;;;;;;10277638;28;20062;-88
2023/07/23 19:10:02;;;;;;;0.73;0.60;;;;;;;;;;10251428;28;20047;-87
2023/07/23 19:15:11;;;;;;;0.70;0.50;;;;;;;;;;10262377;28;20078;-86
2023/07/23 19:20:19;;;;;;;0.98;0.70;;;;;;;;;;10248959;28;20043;-88
2023/07/23 19:25:29;;;;;;;0.43;0.43;;;;;;;;;;10284805;28;20050;-87
2023/07/23 19:30:45;;;;;;;0.60;0.50;;;;;;;;;;10245700;28;20044;-88
2023/07/23 19:36:03;;;;;;;0.45;0.45;;;;;;;;;;10226839;28;20516;-88
2023/07/23 19:41:20;;;;;;;0.30;0.30;;;;;;;;;;10271724;28;20548;-87
2023/07/23 19:46:42;;;;;;;0.93;0.40;;;;;;;;;;10245242;28;20110;-88
2023/07/23 19:51:56;;;;;;;1.58;0.60;;;;;;;;;;10241971;28;20046;-88
2023/07/23 19:57:31;;;;;;;0.90;0.50;;;;;;;;;;10245573;28;20587;-88
2023/07/23 20:02:41;;;;;;;2.45;0.60;;;;;;;;;;10252592;28;20047;-87
2023/07/23 20:07:45;;;;;;;0.50;0.40;;;;;;;;;;10242420;29;20047;-87
2023/07/23 20:13:03;;;;;;;1.13;0.85;;;;;;;;;;10227456;29;20058;-87
2023/07/23 20:18:26;;;;;;;0.90;0.68;;;;;;;;;;10215542;29;20082;-87
2023/07/23 20:23:31;;;;;;;0.40;0.40;;;;;;;;;;10228994;29;20445;-87
2023/07/23 20:28:42;;;;;;;1.13;0.50;;;;;;;;;;10261824;28;20039;-87
2023/07/23 20:33:53;;;;;;;0.28;0.28;;;;;;;;;;10216924;29;20065;-87
2023/07/23 20:39:03;;;;;;;0.63;0.45;;;;;;;;;;10228633;29;20074;-88
2023/07/23 20:44:10;;;;;;;0.50;0.40;;;;;;;;;;10218683;29;20047;-87
2023/07/23 20:54:43;;;;;;;0.80;0.50;;;;;;;;;;10222143;28;20098;-87
2023/07/23 20:59:59;;;;;;;0.77;0.30;;;;;;;;;;10220195;29;20047;-88
2023/07/23 21:05:12;;;;;;;0.80;0.70;;;;;;;;;;10251198;28;20050;-88
2023/07/23 21:10:22;;;;;;;0.68;0.57;;;;;;;;;;10222933;28;20099;-88
2023/07/23 21:15:45;;;;;;;1.73;0.82;;;;;;;;;;10223460;28;20463;-88
2023/07/23 21:20:50;;;;;;;0.90;0.70;;;;;;;;;;10209716;29;20078;-88
2023/07/23 21:25:57;;;;;;;0.63;0.60;;;;;;;;;;10204292;28;20051;-87
2023/07/23 21:31:03;;;;;;;;;;;;;;;;;;10256582;28;20066;-87
2023/07/23 21:36:06;;;;;;;0.45;0.25;;;;;;;;;;10249712;28;19977;-86
2023/07/23 21:41:09;;;;;;;0.57;0.57;;;;;;;;;;10238783;23;20121;-87
2023/07/23 21:46:15;;;;;;;0.85;0.60;;;;;;;;;;10257341;28;20096;-87
2023/07/23 21:51:18;;;;;;;1.67;0.63;;;;;;;;;;10260306;28;20047;-87
2023/07/23 21:56:22;;;;;;;1.50;0.70;;;;;;;;;;10260151;28;20043;-88
2023/07/23 22:01:27;;;;;;;1.40;1.05;;;;;;;;;;10276909;28;20051;-87
2023/07/23 22:06:31;;;;;;;0.93;0.80;;;;;;;;;;10259588;28;20043;-86
2023/07/23 22:11:34;;;;;;;1.55;0.95;;;;;;;;;;10276326;28;20043;-86
2023/07/23 22:16:39;;;;;;;1.77;1.27;;;;;;;;;;10270793;28;20047;-87
2023/07/23 22:21:43;;;;;;;1.20;1.00;;;;;;;;;;10263519;28;20065;-87
2023/07/23 22:26:47;;;;;;;1.25;0.80;;;;;;;;;;10246848;28;20202;-86
2023/07/23 22:31:52;;;;;;;1.42;0.95;;;;;;;;;;10287684;28;20101;-87
2023/07/23 22:36:55;;;;;;;2.00;0.70;;;;;;;;;;10266092;28;20043;-87
2023/07/23 22:41:59;;;;;;;2.10;1.23;;;;;;;;;;10269456;28;20129;-87
2023/07/23 22:47:04;;;;;;;1.42;0.75;;;;;;;;;;10284592;28;20043;-88
2023/07/23 22:52:09;;;;;;;0.68;0.60;;;;;;;;;;10260858;28;20046;-88
2023/07/23 22:57:13;;;;;;;0.90;0.70;;;;;;;;;;10270627;28;20047;-90
2023/07/23 23:02:18;;;;;;;0.85;0.68;;;;;;;;;;10271950;28;20054;-90
2023/07/23 23:07:22;;;;;;;0.87;0.80;;;;;;;;;;10272120;28;20072;-90
2023/07/23 23:12:26;;;;;;;1.42;0.80;;;;;;;;;;10258107;28;20473;-92
2023/07/23 23:17:31;;;;;;;1.70;0.80;;;;;;;;;;10272921;28;20047;-87
2023/07/23 23:22:35;;;;;;;2.10;1.23;;;;;;;;;;10283806;28;20118;-88
2023/07/23 23:27:39;;;;;;;1.85;1.10;;;;;;;;;;10283448;28;20061;-88
2023/07/23 23:32:44;;;;;;;1.05;0.70;;;;;;;;;;10287251;28;20049;-88
2023/07/23 23:37:48;;;;;;;0.80;0.70;;;;;;;;;;10278374;28;20445;-90
2023/07/23 23:42:51;;;;;;;1.25;0.90;;;;;;;;;;10268946;28;20713;-88
2023/07/23 23:47:57;;;;;;;1.90;0.70;;;;;;;;;;10270528;28;20043;-90
2023/07/23 23:53:00;;;;;;;1.00;0.77;;;;;;;;;;10270230;28;20465;-93
2023/07/23 23:58:04;;;;;;;0.52;0.47;;;;;;;;;;10271042;28;20071;-89
